RYR44CB LEIB-LPFR
Flight info
| Callsign | RYR44CB |
|---|---|
| Flight time | 1h 28m |
| Altitude | 37000 |
| Route | BAVER M603 ALT DCT RESTU N851 TOSGA DCT ROLAS N851 MGA/N0456F380 M744 SVL/N0456F370 N747 NAPES Y136 NIRAK |
| Aircraft | B38M/M-SDE1FGHILORVWXY/HB1 |
Departure
| Time | 2026-05-04 11:24 |
|---|---|
| Airport | Ibiza Airport (LEIB) |
Arrival
| Time | 2026-05-04 12:53 |
|---|---|
| Airport | Faro - Gago Coutinho International Airport (LPFR) |
| Time | Latitude | Longitude | Altitude | Speed | Heading |
|---|---|---|---|---|---|
| 2026-05-04 11:00 | 38.87455 | 1.37002 | 11 ft | 0 kts | 332° |
| 2026-05-04 11:19 | 38.87677 | 1.37370 | 11 ft | 21 kts | 60° |
| 2026-05-04 11:19 | 38.87686 | 1.37390 | 11 ft | 4 kts | 60° |
| 2026-05-04 11:19 | 38.87700 | 1.37452 | 11 ft | 11 kts | 98° |
| 2026-05-04 11:19 | 38.87629 | 1.37526 | 11 ft | 17 kts | 150° |
| 2026-05-04 11:20 | 38.87590 | 1.37553 | 11 ft | 3 kts | 151° |
| 2026-05-04 11:20 | 38.87581 | 1.37577 | 11 ft | 3 kts | 92° |
| 2026-05-04 11:20 | 38.87584 | 1.37590 | 11 ft | 2 kts | 63° |
| 2026-05-04 11:20 | 38.87611 | 1.37653 | 12 ft | 14 kts | 62° |
| 2026-05-04 11:22 | 38.87852 | 1.38685 | 14 ft | 10 kts | 239° |
| 2026-05-04 11:22 | 38.87848 | 1.38674 | 14 ft | 0 kts | 243° |
| 2026-05-04 11:23 | 38.87846 | 1.38669 | 14 ft | 2 kts | 243° |
| 2026-05-04 11:24 | 38.85539 | 1.32865 | 2492 ft | 196 kts | 241° |
| 2026-05-04 11:25 | 38.84892 | 1.31202 | 3145 ft | 218 kts | 243° |
| 2026-05-04 11:25 | 38.84316 | 1.29332 | 3969 ft | 229 kts | 248° |
| 2026-05-04 11:25 | 38.83754 | 1.27381 | 4960 ft | 239 kts | 248° |
| 2026-05-04 11:26 | 38.82528 | 1.23217 | 6765 ft | 254 kts | 247° |
| 2026-05-04 11:27 | 38.77700 | 1.07096 | 12137 ft | 312 kts | 248° |
| 2026-05-04 11:28 | 38.76912 | 1.04480 | 13024 ft | 315 kts | 248° |
| 2026-05-04 11:28 | 38.76117 | 1.01839 | 13825 ft | 318 kts | 248° |
| 2026-05-04 11:28 | 38.75315 | 0.99181 | 14571 ft | 320 kts | 248° |
| 2026-05-04 11:28 | 38.74519 | 0.96544 | 15329 ft | 321 kts | 248° |
| 2026-05-04 11:29 | 38.73709 | 0.93863 | 16061 ft | 323 kts | 248° |
| 2026-05-04 11:29 | 38.73619 | 0.93565 | 16143 ft | 323 kts | 248° |
| 2026-05-04 11:29 | 38.73504 | 0.93185 | 16254 ft | 323 kts | 248° |
| 2026-05-04 11:29 | 38.73139 | 0.91978 | 16578 ft | 324 kts | 248° |
| 2026-05-04 11:31 | 38.72227 | 0.88965 | 17389 ft | 326 kts | 248° |
| 2026-05-04 11:33 | 38.67760 | 0.74259 | 20591 ft | 338 kts | 248° |
| 2026-05-04 11:33 | 38.66897 | 0.71425 | 21129 ft | 341 kts | 247° |
| 2026-05-04 11:33 | 38.66030 | 0.68582 | 21682 ft | 343 kts | 247° |
| 2026-05-04 11:34 | 38.65171 | 0.65769 | 22202 ft | 345 kts | 247° |
| 2026-05-04 11:34 | 38.64294 | 0.62898 | 22752 ft | 347 kts | 247° |
| 2026-05-04 11:34 | 38.63410 | 0.60011 | 23279 ft | 349 kts | 247° |
| 2026-05-04 11:34 | 38.62517 | 0.57094 | 23734 ft | 352 kts | 247° |
| 2026-05-04 11:35 | 38.61627 | 0.54190 | 24156 ft | 354 kts | 246° |
| 2026-05-04 11:35 | 38.60722 | 0.51240 | 24579 ft | 357 kts | 246° |
| 2026-05-04 11:35 | 38.59811 | 0.48276 | 24990 ft | 359 kts | 246° |
| 2026-05-04 11:35 | 38.58892 | 0.45286 | 25392 ft | 361 kts | 246° |
| 2026-05-04 11:36 | 38.57978 | 0.42317 | 25793 ft | 363 kts | 246° |
| 2026-05-04 11:36 | 38.57049 | 0.39305 | 26181 ft | 366 kts | 246° |
| 2026-05-04 11:36 | 38.56114 | 0.36271 | 26590 ft | 368 kts | 246° |
| 2026-05-04 11:36 | 38.55168 | 0.33209 | 26968 ft | 370 kts | 246° |
| 2026-05-04 11:37 | 38.54216 | 0.30133 | 27339 ft | 373 kts | 246° |
| 2026-05-04 11:37 | 38.53260 | 0.27043 | 27704 ft | 375 kts | 246° |
| 2026-05-04 11:37 | 38.52309 | 0.23976 | 28059 ft | 377 kts | 246° |
| 2026-05-04 11:37 | 38.51338 | 0.20845 | 28424 ft | 379 kts | 246° |
| 2026-05-04 11:38 | 38.50362 | 0.17704 | 28772 ft | 381 kts | 246° |
| 2026-05-04 11:38 | 38.49379 | 0.14544 | 29117 ft | 383 kts | 246° |
| 2026-05-04 11:38 | 38.48393 | 0.11375 | 29455 ft | 385 kts | 246° |
| 2026-05-04 11:38 | 38.47395 | 0.08175 | 29785 ft | 388 kts | 246° |
| 2026-05-04 11:39 | 38.46404 | 0.04999 | 30102 ft | 390 kts | 246° |
| 2026-05-04 11:39 | 38.45397 | 0.01774 | 30376 ft | 392 kts | 246° |
| 2026-05-04 11:40 | 38.39268 | -0.17767 | 32302 ft | 395 kts | 246° |
| 2026-05-04 11:41 | 38.38256 | -0.20979 | 32683 ft | 394 kts | 246° |
| 2026-05-04 11:41 | 38.37234 | -0.24220 | 33067 ft | 392 kts | 246° |
| 2026-05-04 11:41 | 38.36213 | -0.27454 | 33443 ft | 391 kts | 246° |
| 2026-05-04 11:41 | 38.35194 | -0.30678 | 33821 ft | 390 kts | 246° |
| 2026-05-04 11:42 | 38.34181 | -0.33879 | 34152 ft | 389 kts | 246° |
| 2026-05-04 11:42 | 38.33183 | -0.37032 | 34433 ft | 389 kts | 246° |
| 2026-05-04 11:42 | 38.32169 | -0.40230 | 34713 ft | 388 kts | 246° |
| 2026-05-04 11:42 | 38.31157 | -0.43416 | 34986 ft | 388 kts | 246° |
| 2026-05-04 11:43 | 38.30146 | -0.46598 | 35248 ft | 387 kts | 246° |
| 2026-05-04 11:43 | 38.29132 | -0.49786 | 35501 ft | 387 kts | 246° |
| 2026-05-04 11:43 | 38.28116 | -0.52972 | 35754 ft | 387 kts | 246° |
| 2026-05-04 11:43 | 38.27109 | -0.56117 | 35992 ft | 387 kts | 245° |
| 2026-05-04 11:44 | 38.25983 | -0.59229 | 36226 ft | 386 kts | 244° |
| 2026-05-04 11:44 | 38.24856 | -0.62340 | 36457 ft | 386 kts | 244° |
| 2026-05-04 11:44 | 38.23735 | -0.65447 | 36688 ft | 385 kts | 244° |
| 2026-05-04 11:44 | 38.22632 | -0.68509 | 36898 ft | 385 kts | 244° |
| 2026-05-04 11:45 | 38.21510 | -0.71624 | 36975 ft | 386 kts | 244° |
| 2026-05-04 11:45 | 38.19276 | -0.77814 | 36988 ft | 384 kts | 244° |
| 2026-05-04 11:46 | 38.17061 | -0.83941 | 36965 ft | 384 kts | 244° |
| 2026-05-04 11:46 | 38.14824 | -0.90115 | 36967 ft | 384 kts | 244° |
| 2026-05-04 11:47 | 38.12584 | -0.96284 | 36960 ft | 384 kts | 244° |
| 2026-05-04 11:47 | 38.10345 | -1.02440 | 36957 ft | 384 kts | 244° |
| 2026-05-04 11:48 | 38.08115 | -1.08559 | 36952 ft | 384 kts | 244° |
| 2026-05-04 11:48 | 38.05862 | -1.14727 | 36971 ft | 384 kts | 244° |
| 2026-05-04 11:49 | 38.03627 | -1.20833 | 36954 ft | 382 kts | 244° |
| 2026-05-04 11:49 | 38.01381 | -1.26956 | 36953 ft | 383 kts | 244° |
| 2026-05-04 11:50 | 37.99128 | -1.33088 | 36948 ft | 382 kts | 244° |
| 2026-05-04 11:50 | 37.96882 | -1.39186 | 36940 ft | 382 kts | 244° |
| 2026-05-04 11:51 | 37.94626 | -1.45300 | 36943 ft | 383 kts | 244° |
| 2026-05-04 11:51 | 37.92372 | -1.51401 | 36943 ft | 384 kts | 244° |
| 2026-05-04 11:52 | 37.90103 | -1.57515 | 36964 ft | 382 kts | 244° |
| 2026-05-04 11:52 | 37.87844 | -1.63585 | 36962 ft | 382 kts | 244° |
| 2026-05-04 11:53 | 37.85586 | -1.69639 | 36963 ft | 382 kts | 244° |
| 2026-05-04 11:53 | 37.83308 | -1.75735 | 36956 ft | 382 kts | 244° |
| 2026-05-04 11:55 | 37.74212 | -1.99958 | 36973 ft | 380 kts | 244° |
| 2026-05-04 11:56 | 37.71936 | -2.05988 | 36981 ft | 381 kts | 244° |
| 2026-05-04 11:56 | 37.69648 | -2.12039 | 36924 ft | 380 kts | 244° |
| 2026-05-04 11:57 | 37.67382 | -2.18023 | 37002 ft | 381 kts | 244° |
| 2026-05-04 11:57 | 37.65080 | -2.24087 | 36978 ft | 381 kts | 244° |
| 2026-05-04 11:58 | 37.62784 | -2.30125 | 37001 ft | 381 kts | 244° |
| 2026-05-04 11:58 | 37.60496 | -2.36136 | 37000 ft | 382 kts | 244° |
| 2026-05-04 11:59 | 37.58189 | -2.42183 | 36987 ft | 382 kts | 244° |
| 2026-05-04 11:59 | 37.55879 | -2.48226 | 36995 ft | 382 kts | 244° |
| 2026-05-04 12:00 | 37.53580 | -2.54231 | 36995 ft | 382 kts | 244° |
| 2026-05-04 12:00 | 37.51651 | -2.59260 | 37002 ft | 382 kts | 244° |
| 2026-05-04 12:01 | 37.49333 | -2.65291 | 36996 ft | 382 kts | 244° |
| 2026-05-04 12:02 | 37.41233 | -2.86280 | 36991 ft | 381 kts | 245° |
| 2026-05-04 12:03 | 37.38915 | -2.92258 | 36995 ft | 381 kts | 245° |
| 2026-05-04 12:03 | 37.36599 | -2.98220 | 36990 ft | 381 kts | 244° |
| 2026-05-04 12:04 | 37.34268 | -3.04210 | 37007 ft | 381 kts | 244° |
| 2026-05-04 12:04 | 37.31957 | -3.10136 | 37004 ft | 378 kts | 245° |
| 2026-05-04 12:05 | 37.29638 | -3.16072 | 36998 ft | 378 kts | 245° |
| 2026-05-04 12:05 | 37.27328 | -3.21975 | 37011 ft | 378 kts | 245° |
| 2026-05-04 12:06 | 37.25000 | -3.27910 | 37013 ft | 378 kts | 245° |
| 2026-05-04 12:06 | 37.22681 | -3.33811 | 37034 ft | 378 kts | 245° |
| 2026-05-04 12:07 | 37.20348 | -3.39737 | 37039 ft | 377 kts | 245° |
| 2026-05-04 12:07 | 37.18021 | -3.45632 | 37024 ft | 378 kts | 245° |
| 2026-05-04 12:08 | 37.15700 | -3.51505 | 37053 ft | 377 kts | 245° |
| 2026-05-04 12:08 | 37.13379 | -3.57367 | 37053 ft | 377 kts | 245° |
| 2026-05-04 12:09 | 37.11052 | -3.63233 | 37047 ft | 377 kts | 245° |
| 2026-05-04 12:09 | 37.08711 | -3.69121 | 37055 ft | 377 kts | 245° |
| 2026-05-04 12:10 | 37.06369 | -3.75002 | 37040 ft | 376 kts | 245° |
| 2026-05-04 12:10 | 37.04038 | -3.80845 | 37039 ft | 377 kts | 244° |
| 2026-05-04 12:11 | 37.01688 | -3.86725 | 37036 ft | 377 kts | 245° |
| 2026-05-04 12:11 | 36.99346 | -3.92572 | 37013 ft | 376 kts | 245° |
| 2026-05-04 12:12 | 36.96991 | -3.98442 | 37019 ft | 377 kts | 245° |
| 2026-05-04 12:12 | 36.94647 | -4.04275 | 37024 ft | 377 kts | 244° |
| 2026-05-04 12:14 | 36.85200 | -4.27672 | 37023 ft | 377 kts | 245° |
| 2026-05-04 12:15 | 36.83015 | -4.33579 | 37004 ft | 375 kts | 256° |
| 2026-05-04 12:15 | 36.82755 | -4.36832 | 37025 ft | 377 kts | 271° |
| 2026-05-04 12:15 | 36.83260 | -4.40027 | 37026 ft | 386 kts | 284° |
| 2026-05-04 12:16 | 36.85509 | -4.46228 | 37056 ft | 394 kts | 289° |
| 2026-05-04 12:16 | 36.87994 | -4.52319 | 37006 ft | 395 kts | 290° |
| 2026-05-04 12:17 | 36.90552 | -4.58415 | 37098 ft | 395 kts | 290° |
| 2026-05-04 12:17 | 36.93091 | -4.64425 | 37011 ft | 394 kts | 290° |
| 2026-05-04 12:18 | 36.95660 | -4.70507 | 37005 ft | 396 kts | 291° |
| 2026-05-04 12:18 | 36.98217 | -4.76574 | 37008 ft | 396 kts | 290° |
| 2026-05-04 12:19 | 37.00784 | -4.82676 | 37009 ft | 395 kts | 290° |
| 2026-05-04 12:19 | 37.03332 | -4.88744 | 37013 ft | 395 kts | 290° |
| 2026-05-04 12:20 | 37.05949 | -4.94820 | 37020 ft | 398 kts | 293° |
| 2026-05-04 12:20 | 37.08707 | -5.00802 | 37000 ft | 395 kts | 292° |
| 2026-05-04 12:21 | 37.11416 | -5.06737 | 37020 ft | 394 kts | 292° |
| 2026-05-04 12:21 | 37.14139 | -5.12715 | 37022 ft | 396 kts | 292° |
| 2026-05-04 12:22 | 37.16882 | -5.18749 | 37024 ft | 398 kts | 292° |
| 2026-05-04 12:22 | 37.19604 | -5.24745 | 36575 ft | 392 kts | 292° |
| 2026-05-04 12:23 | 37.20938 | -5.27689 | 36263 ft | 383 kts | 292° |
| 2026-05-04 12:23 | 37.22238 | -5.30560 | 36119 ft | 371 kts | 292° |
| 2026-05-04 12:23 | 37.23485 | -5.33317 | 35869 ft | 365 kts | 292° |
| 2026-05-04 12:23 | 37.24758 | -5.36137 | 35411 ft | 376 kts | 292° |
| 2026-05-04 12:24 | 37.26056 | -5.39009 | 34851 ft | 379 kts | 292° |
| 2026-05-04 12:24 | 37.27342 | -5.41860 | 34348 ft | 378 kts | 292° |
| 2026-05-04 12:24 | 37.28636 | -5.44729 | 33847 ft | 375 kts | 292° |
| 2026-05-04 12:24 | 37.29923 | -5.47586 | 33305 ft | 373 kts | 292° |
| 2026-05-04 12:25 | 37.31175 | -5.50368 | 32830 ft | 370 kts | 292° |
| 2026-05-04 12:25 | 37.32419 | -5.53135 | 32381 ft | 366 kts | 292° |
| 2026-05-04 12:25 | 37.33665 | -5.55908 | 31938 ft | 363 kts | 292° |
| 2026-05-04 12:25 | 37.34903 | -5.58665 | 31526 ft | 359 kts | 292° |
| 2026-05-04 12:26 | 37.36130 | -5.61403 | 31067 ft | 357 kts | 292° |
| 2026-05-04 12:26 | 37.37347 | -5.64117 | 30636 ft | 355 kts | 292° |
| 2026-05-04 12:26 | 37.38539 | -5.66780 | 30212 ft | 353 kts | 292° |
| 2026-05-04 12:26 | 37.39742 | -5.69467 | 29736 ft | 350 kts | 292° |
| 2026-05-04 12:27 | 37.40932 | -5.72128 | 29304 ft | 346 kts | 293° |
| 2026-05-04 12:27 | 37.41904 | -5.74839 | 28779 ft | 336 kts | 279° |
| 2026-05-04 12:27 | 37.42078 | -5.77718 | 28334 ft | 326 kts | 262° |
| 2026-05-04 12:27 | 37.41756 | -5.80487 | 28037 ft | 320 kts | 260° |
| 2026-05-04 12:28 | 37.41380 | -5.83240 | 27669 ft | 316 kts | 259° |
| 2026-05-04 12:28 | 37.40963 | -5.85940 | 27309 ft | 312 kts | 258° |
| 2026-05-04 12:28 | 37.40530 | -5.88569 | 26962 ft | 309 kts | 257° |
| 2026-05-04 12:28 | 37.40083 | -5.91199 | 26612 ft | 305 kts | 257° |
| 2026-05-04 12:29 | 37.39625 | -5.93838 | 26272 ft | 309 kts | 257° |
| 2026-05-04 12:29 | 37.39156 | -5.96498 | 25922 ft | 314 kts | 257° |
| 2026-05-04 12:29 | 37.38684 | -5.99156 | 25577 ft | 315 kts | 257° |
| 2026-05-04 12:29 | 37.38203 | -6.01846 | 25235 ft | 314 kts | 257° |
| 2026-05-04 12:30 | 37.37725 | -6.04521 | 24895 ft | 313 kts | 257° |
| 2026-05-04 12:30 | 37.37245 | -6.07194 | 24561 ft | 311 kts | 257° |
| 2026-05-04 12:30 | 37.36773 | -6.09826 | 24235 ft | 310 kts | 257° |
| 2026-05-04 12:30 | 37.36297 | -6.12472 | 23905 ft | 310 kts | 257° |
| 2026-05-04 12:31 | 37.35819 | -6.15121 | 23565 ft | 308 kts | 257° |
| 2026-05-04 12:31 | 37.35345 | -6.17751 | 23184 ft | 307 kts | 257° |
| 2026-05-04 12:31 | 37.34877 | -6.20341 | 22839 ft | 306 kts | 257° |
| 2026-05-04 12:31 | 37.34404 | -6.22957 | 22518 ft | 305 kts | 257° |
| 2026-05-04 12:32 | 37.33933 | -6.25555 | 22186 ft | 304 kts | 257° |
| 2026-05-04 12:32 | 37.33003 | -6.30681 | 21575 ft | 301 kts | 257° |
| 2026-05-04 12:32 | 37.32537 | -6.33249 | 21257 ft | 300 kts | 258° |
| 2026-05-04 12:33 | 37.32076 | -6.35778 | 20947 ft | 299 kts | 258° |
| 2026-05-04 12:33 | 37.31618 | -6.38290 | 20643 ft | 298 kts | 258° |
| 2026-05-04 12:33 | 37.31156 | -6.40823 | 20351 ft | 297 kts | 258° |
| 2026-05-04 12:33 | 37.30693 | -6.43354 | 20031 ft | 296 kts | 258° |
| 2026-05-04 12:34 | 37.30231 | -6.45881 | 19729 ft | 295 kts | 258° |
| 2026-05-04 12:34 | 37.29772 | -6.48391 | 19393 ft | 295 kts | 258° |
| 2026-05-04 12:34 | 37.29310 | -6.50906 | 19097 ft | 296 kts | 258° |
| 2026-05-04 12:34 | 37.28847 | -6.53426 | 18766 ft | 295 kts | 258° |
| 2026-05-04 12:35 | 37.28392 | -6.55898 | 18500 ft | 292 kts | 258° |
| 2026-05-04 12:35 | 37.27936 | -6.58374 | 18193 ft | 289 kts | 258° |
| 2026-05-04 12:35 | 37.27484 | -6.60820 | 17875 ft | 285 kts | 258° |
| 2026-05-04 12:35 | 37.27039 | -6.63231 | 17578 ft | 281 kts | 258° |
| 2026-05-04 12:36 | 37.26600 | -6.65606 | 17280 ft | 278 kts | 258° |
| 2026-05-04 12:36 | 37.26160 | -6.67984 | 16974 ft | 283 kts | 258° |
| 2026-05-04 12:36 | 37.25710 | -6.70410 | 16697 ft | 287 kts | 258° |
| 2026-05-04 12:36 | 37.25256 | -6.72861 | 16409 ft | 289 kts | 258° |
| 2026-05-04 12:37 | 37.24805 | -6.75289 | 16121 ft | 289 kts | 258° |
| 2026-05-04 12:37 | 37.24346 | -6.77755 | 15777 ft | 289 kts | 258° |
| 2026-05-04 12:37 | 37.23890 | -6.80202 | 15493 ft | 285 kts | 258° |
| 2026-05-04 12:37 | 37.23440 | -6.82612 | 15202 ft | 281 kts | 258° |
| 2026-05-04 12:38 | 37.23003 | -6.84955 | 14926 ft | 278 kts | 258° |
| 2026-05-04 12:38 | 37.22563 | -6.87310 | 14659 ft | 276 kts | 258° |
| 2026-05-04 12:38 | 37.22122 | -6.89664 | 14370 ft | 278 kts | 258° |
| 2026-05-04 12:38 | 37.21852 | -6.91106 | 14199 ft | 281 kts | 258° |
| 2026-05-04 12:39 | 37.21400 | -6.93517 | 13892 ft | 285 kts | 258° |
| 2026-05-04 12:39 | 37.20942 | -6.95954 | 13567 ft | 286 kts | 258° |
| 2026-05-04 12:39 | 37.20492 | -6.98347 | 13255 ft | 284 kts | 258° |
| 2026-05-04 12:39 | 37.19911 | -7.00718 | 12810 ft | 286 kts | 249° |
| 2026-05-04 12:40 | 37.19129 | -7.03068 | 12206 ft | 293 kts | 249° |
| 2026-05-04 12:40 | 37.18366 | -7.05431 | 11662 ft | 298 kts | 249° |
| 2026-05-04 12:40 | 37.17603 | -7.07829 | 11245 ft | 290 kts | 250° |
| 2026-05-04 12:40 | 37.16876 | -7.10135 | 10939 ft | 278 kts | 250° |
| 2026-05-04 12:41 | 37.16183 | -7.12345 | 10631 ft | 267 kts | 250° |
| 2026-05-04 12:41 | 37.15519 | -7.14471 | 10358 ft | 257 kts | 250° |
| 2026-05-04 12:41 | 37.14874 | -7.16540 | 10234 ft | 259 kts | 250° |
| 2026-05-04 12:41 | 37.14215 | -7.18650 | 10096 ft | 260 kts | 250° |
| 2026-05-04 12:42 | 37.13551 | -7.20777 | 9798 ft | 261 kts | 250° |
| 2026-05-04 12:42 | 37.12897 | -7.22872 | 9462 ft | 262 kts | 250° |
| 2026-05-04 12:42 | 37.12233 | -7.24996 | 9137 ft | 260 kts | 250° |
| 2026-05-04 12:42 | 37.11575 | -7.27100 | 8836 ft | 258 kts | 250° |
| 2026-05-04 12:43 | 37.10921 | -7.29190 | 8535 ft | 256 kts | 250° |
| 2026-05-04 12:43 | 37.10273 | -7.31260 | 8244 ft | 254 kts | 250° |
| 2026-05-04 12:43 | 37.09628 | -7.33318 | 7966 ft | 252 kts | 251° |
| 2026-05-04 12:43 | 37.08997 | -7.35329 | 7677 ft | 250 kts | 251° |
| 2026-05-04 12:44 | 37.08362 | -7.37351 | 7394 ft | 248 kts | 251° |
| 2026-05-04 12:44 | 37.07730 | -7.39363 | 7113 ft | 247 kts | 251° |
| 2026-05-04 12:44 | 37.07101 | -7.41364 | 6835 ft | 245 kts | 251° |
| 2026-05-04 12:44 | 37.06480 | -7.43340 | 6564 ft | 250 kts | 251° |
| 2026-05-04 12:45 | 37.05834 | -7.45393 | 6272 ft | 255 kts | 251° |
| 2026-05-04 12:45 | 37.05178 | -7.47473 | 5964 ft | 257 kts | 251° |
| 2026-05-04 12:45 | 37.04520 | -7.49563 | 5668 ft | 257 kts | 251° |
| 2026-05-04 12:45 | 37.03873 | -7.51613 | 5365 ft | 255 kts | 251° |
| 2026-05-04 12:46 | 37.03222 | -7.53675 | 5080 ft | 254 kts | 251° |
| 2026-05-04 12:46 | 37.02570 | -7.55739 | 4791 ft | 253 kts | 251° |
| 2026-05-04 12:46 | 37.01925 | -7.57777 | 4499 ft | 251 kts | 251° |
| 2026-05-04 12:46 | 37.01290 | -7.59785 | 4218 ft | 250 kts | 251° |
| 2026-05-04 12:47 | 37.00653 | -7.61800 | 3983 ft | 246 kts | 251° |
| 2026-05-04 12:47 | 37.00031 | -7.63761 | 3824 ft | 238 kts | 251° |
| 2026-05-04 12:47 | 36.99427 | -7.65662 | 3712 ft | 229 kts | 252° |
| 2026-05-04 12:47 | 36.98850 | -7.67485 | 3574 ft | 221 kts | 252° |
| 2026-05-04 12:48 | 36.98603 | -7.69302 | 3404 ft | 207 kts | 277° |
| 2026-05-04 12:48 | 36.98692 | -7.71069 | 3288 ft | 203 kts | 276° |
| 2026-05-04 12:48 | 36.98775 | -7.72833 | 3204 ft | 206 kts | 277° |
| 2026-05-04 12:48 | 36.98839 | -7.74625 | 3081 ft | 207 kts | 272° |
| 2026-05-04 12:49 | 36.98794 | -7.76389 | 2935 ft | 200 kts | 273° |
| 2026-05-04 12:49 | 36.98883 | -7.78092 | 2718 ft | 191 kts | 278° |
| 2026-05-04 12:49 | 36.99055 | -7.79687 | 2520 ft | 183 kts | 280° |
| 2026-05-04 12:49 | 36.99260 | -7.81224 | 2310 ft | 175 kts | 281° |
| 2026-05-04 12:50 | 36.99402 | -7.82231 | 2169 ft | 172 kts | 282° |
| 2026-05-04 12:50 | 36.99664 | -7.84089 | 1964 ft | 154 kts | 282° |
| 2026-05-04 12:50 | 36.99789 | -7.84967 | 1838 ft | 150 kts | 283° |
| 2026-05-04 12:50 | 36.99969 | -7.86233 | 1677 ft | 149 kts | 282° |
| 2026-05-04 12:51 | 37.00143 | -7.87467 | 1495 ft | 136 kts | 283° |
| 2026-05-04 12:51 | 37.00309 | -7.88609 | 1306 ft | 133 kts | 281° |
| 2026-05-04 12:51 | 37.00473 | -7.89757 | 1108 ft | 135 kts | 280° |
| 2026-05-04 12:51 | 37.00636 | -7.90906 | 916 ft | 130 kts | 279° |
| 2026-05-04 12:52 | 37.00798 | -7.92006 | 729 ft | 131 kts | 278° |
| 2026-05-04 12:52 | 37.00961 | -7.93130 | 558 ft | 130 kts | 276° |
| 2026-05-04 12:52 | 37.01110 | -7.94187 | 366 ft | 118 kts | 274° |
| 2026-05-04 12:52 | 37.01255 | -7.95234 | 202 ft | 128 kts | 275° |
| 2026-05-04 12:53 | 37.01409 | -7.96304 | 28 ft | 120 kts | 276° |
| 2026-05-04 12:53 | 37.01513 | -7.97096 | 22 ft | 62 kts | 279° |
| 2026-05-04 12:53 | 37.01567 | -7.97448 | 21 ft | 28 kts | 278° |
| 2026-05-04 12:53 | 37.01604 | -7.97710 | 22 ft | 33 kts | 279° |
| 2026-05-04 12:54 | 37.01694 | -7.97849 | 24 ft | 19 kts | 21° |
| 2026-05-04 12:54 | 37.01754 | -7.97737 | 25 ft | 18 kts | 69° |
| 2026-05-04 12:54 | 37.01768 | -7.97560 | 23 ft | 24 kts | 94° |
| 2026-05-04 12:54 | 37.01779 | -7.97421 | 24 ft | 6 kts | 30° |
| 2026-05-04 12:55 | 37.01826 | -7.97380 | 25 ft | 10 kts | 38° |
| 2026-05-04 12:55 | 37.01875 | -7.97337 | 24 ft | 8 kts | 13° |
| 2026-05-04 12:55 | 37.01903 | -7.97331 | 25 ft | 0 kts | 9° |